createdAt,value
2022-12-06T00:01:16.052Z,17.15
2022-12-06T00:03:45.200Z,17.33
2022-12-06T00:06:19.433Z,17.60
2022-12-06T00:08:47.907Z,16.73
2022-12-06T00:11:20.682Z,19.85
2022-12-06T00:13:48.536Z,20.30
2022-12-06T00:16:17.026Z,18.10
2022-12-06T00:18:46.816Z,18.40
2022-12-06T00:21:22.724Z,19.37
2022-12-06T00:23:55.629Z,19.37
2022-12-06T00:26:24.068Z,19.75
2022-12-06T00:28:56.311Z,19.02
2022-12-06T00:31:25.438Z,17.35
2022-12-06T00:33:53.328Z,19.92
2022-12-06T00:36:31.520Z,18.00
2022-12-06T00:39:00.857Z,18.15
2022-12-06T00:41:30.882Z,19.00
2022-12-06T00:43:58.212Z,19.45
2022-12-06T00:46:32.167Z,20.88
2022-12-06T00:49:00.622Z,18.55
2022-12-06T00:51:30.997Z,18.45
2022-12-06T00:53:58.992Z,20.75
2022-12-06T00:56:27.834Z,18.30
2022-12-06T00:58:55.592Z,21.25
2022-12-06T01:01:30.471Z,15.88
2022-12-06T01:04:00.251Z,15.52
2022-12-06T01:06:30.212Z,18.20
2022-12-06T01:09:00.349Z,17.85
2022-12-06T01:11:29.208Z,18.87
2022-12-06T01:13:56.861Z,18.90
2022-12-06T01:16:27.288Z,18.50
2022-12-06T01:18:57.031Z,22.45
2022-12-06T01:21:25.650Z,20.88
2022-12-06T01:23:54.453Z,22.60
2022-12-06T01:26:25.224Z,22.58
2022-12-06T01:28:53.480Z,20.98
2022-12-06T01:31:21.078Z,24.05
2022-12-06T01:33:48.674Z,25.33
2022-12-06T01:36:18.479Z,22.17
2022-12-06T01:38:52.245Z,19.37
2022-12-06T01:41:21.193Z,20.25
2022-12-06T01:43:48.950Z,20.20
2022-12-06T01:46:25.120Z,20.27
2022-12-06T01:48:58.169Z,18.62
2022-12-06T01:51:25.631Z,16.70
2022-12-06T01:53:54.008Z,21.23
2022-12-06T01:56:21.625Z,19.08
2022-12-06T01:58:50.113Z,21.42
2022-12-06T02:01:17.856Z,18.60
2022-12-06T02:03:47.566Z,19.20
2022-12-06T02:06:15.687Z,16.33
2022-12-06T02:08:43.704Z,18.55
2022-12-06T02:11:11.341Z,16.80
2022-12-06T02:13:39.138Z,17.12
2022-12-06T02:16:24.949Z,17.12
2022-12-06T02:19:17.665Z,19.02
2022-12-06T02:22:07.777Z,16.52
2022-12-06T02:24:51.160Z,18.92
2022-12-06T02:27:32.281Z,16.52
2022-12-06T02:30:11.964Z,16.17
2022-12-06T02:33:00.233Z,16.12
2022-12-06T02:35:33.402Z,18.20
2022-12-06T02:38:08.829Z,15.98
2022-12-06T02:40:57.265Z,16.50
2022-12-06T02:43:28.594Z,17.83
2022-12-06T02:45:58.021Z,17.12
2022-12-06T02:48:25.995Z,17.65
2022-12-06T02:50:57.278Z,17.92
2022-12-06T02:53:26.402Z,20.23
2022-12-06T02:55:54.145Z,18.33
2022-12-06T02:58:21.462Z,17.15
2022-12-06T03:00:59.272Z,18.70
2022-12-06T03:04:00.762Z,21.62
2022-12-06T03:06:40.758Z,20.08
2022-12-06T03:09:52.727Z,18.27
2022-12-06T03:12:30.667Z,20.17
2022-12-06T03:15:09.882Z,21.08
2022-12-06T03:17:43.571Z,17.33
2022-12-06T03:20:42.624Z,19.87
2022-12-06T03:23:40.135Z,17.67
2022-12-06T03:26:11.057Z,17.80
2022-12-06T03:28:39.512Z,18.40
2022-12-06T03:31:11.010Z,19.10
2022-12-06T03:33:49.413Z,17.45
2022-12-06T03:36:18.639Z,16.20
2022-12-06T03:38:55.711Z,18.80
2022-12-06T03:41:25.970Z,15.98
2022-12-06T03:43:53.663Z,20.37
2022-12-06T03:46:24.517Z,19.70
2022-12-06T03:48:55.903Z,18.05
2022-12-06T03:51:26.662Z,16.70
2022-12-06T03:53:57.646Z,17.85
2022-12-06T03:56:26.106Z,17.92
2022-12-06T03:58:53.488Z,16.15
2022-12-06T04:01:20.942Z,16.85
2022-12-06T04:03:48.659Z,17.05
2022-12-06T04:06:16.050Z,16.37
2022-12-06T04:08:43.384Z,20.20
2022-12-06T04:11:10.965Z,20.40
2022-12-06T04:13:38.368Z,20.12
2022-12-06T04:16:26.133Z,22.87
2022-12-06T04:18:54.869Z,19.87
2022-12-06T04:21:31.498Z,19.45
2022-12-06T04:23:59.842Z,19.65
2022-12-06T04:26:27.243Z,20.23
2022-12-06T04:29:13.127Z,18.42
2022-12-06T04:31:59.259Z,20.10
2022-12-06T04:34:44.996Z,20.67
2022-12-06T04:37:30.961Z,18.58
2022-12-06T04:39:58.710Z,18.83
2022-12-06T04:42:45.423Z,15.48
2022-12-06T04:45:12.748Z,15.98
2022-12-06T04:47:40.363Z,17.33
2022-12-06T04:50:07.909Z,19.02
2022-12-06T04:52:36.166Z,16.20
2022-12-06T04:55:04.950Z,16.65
2022-12-06T04:57:32.449Z,14.87
2022-12-06T05:00:00.102Z,18.33
2022-12-06T05:02:28.041Z,16.55
2022-12-06T05:04:55.347Z,15.52
2022-12-06T05:07:22.703Z,16.87
2022-12-06T05:09:51.344Z,16.70
2022-12-06T05:12:18.656Z,18.25
2022-12-06T05:14:46.988Z,13.95
2022-12-06T05:17:14.558Z,15.45
2022-12-06T05:19:41.861Z,16.50
2022-12-06T05:22:09.234Z,15.65
2022-12-06T05:24:36.819Z,17.35
2022-12-06T05:27:04.163Z,17.02
2022-12-06T05:29:31.529Z,16.12
2022-12-06T05:31:59.135Z,15.52
2022-12-06T05:34:26.577Z,17.35
2022-12-06T05:36:53.902Z,16.62
2022-12-06T05:39:21.510Z,16.17
2022-12-06T05:41:48.805Z,17.23
2022-12-06T05:44:16.207Z,17.75
2022-12-06T05:46:43.867Z,19.50
2022-12-06T05:49:11.188Z,17.90
2022-12-06T05:51:38.779Z,19.12
2022-12-06T05:54:06.751Z,15.25
2022-12-06T05:56:34.146Z,18.87
2022-12-06T05:59:01.508Z,16.98
2022-12-06T06:01:29.377Z,20.35
2022-12-06T06:03:57.176Z,19.58
2022-12-06T06:06:25.727Z,19.17
2022-12-06T06:08:53.196Z,17.25
2022-12-06T06:11:20.979Z,21.15
2022-12-06T06:13:48.401Z,19.90
2022-12-06T06:16:17.064Z,20.12
2022-12-06T06:18:44.987Z,16.70
2022-12-06T06:21:12.306Z,19.30
2022-12-06T06:23:39.699Z,21.23
2022-12-06T06:26:11.999Z,20.98
2022-12-06T06:28:39.361Z,20.20
2022-12-06T06:31:07.860Z,21.58
2022-12-06T06:33:36.192Z,19.85
2022-12-06T06:36:04.019Z,18.77
2022-12-06T06:38:31.705Z,17.98
2022-12-06T06:41:02.899Z,17.33
2022-12-06T06:43:30.449Z,18.42
2022-12-06T06:46:00.172Z,16.37
2022-12-06T06:48:30.583Z,19.98
2022-12-06T06:51:09.580Z,18.55
2022-12-06T06:53:37.712Z,18.75
2022-12-06T06:56:06.034Z,16.02
2022-12-06T06:58:33.477Z,18.75
2022-12-06T07:01:02.523Z,15.73
2022-12-06T07:03:30.175Z,12.00
2022-12-06T07:06:08.152Z,12.23
2022-12-06T07:08:35.912Z,12.57
2022-12-06T07:11:03.425Z,13.02
2022-12-06T07:13:31.516Z,12.52
2022-12-06T07:15:59.163Z,11.55
2022-12-06T07:18:26.464Z,13.10
2022-12-06T07:21:05.659Z,12.25
2022-12-06T07:23:34.649Z,12.18
2022-12-06T07:26:07.722Z,15.30
2022-12-06T07:28:36.908Z,13.40
2022-12-06T07:31:15.684Z,15.07
2022-12-06T07:33:43.904Z,15.25
2022-12-06T07:36:13.568Z,16.40
2022-12-06T07:38:49.093Z,13.20
2022-12-06T07:41:36.097Z,13.20
2022-12-06T07:44:30.642Z,13.35
2022-12-06T07:46:58.336Z,12.70
2022-12-06T07:49:25.763Z,13.75
2022-12-06T07:51:53.980Z,14.30
2022-12-06T07:54:22.337Z,14.57
2022-12-06T07:56:49.739Z,11.85
2022-12-06T07:59:17.078Z,12.73
2022-12-06T08:01:44.883Z,10.98
2022-12-06T08:04:12.824Z,7.47
2022-12-06T08:06:40.381Z,10.55
2022-12-06T08:09:08.412Z,10.43
2022-12-06T08:11:36.706Z,8.07
2022-12-06T08:14:04.695Z,8.23
2022-12-06T08:16:32.278Z,6.28
2022-12-06T08:18:59.920Z,6.95
2022-12-06T08:21:27.425Z,7.62
2022-12-06T08:23:55.267Z,8.07
2022-12-06T08:26:23.052Z,5.65
2022-12-06T08:28:50.425Z,5.82
2022-12-06T08:31:24.116Z,5.00
2022-12-06T08:33:51.863Z,5.03
2022-12-06T08:36:21.409Z,6.20
2022-12-06T08:38:49.295Z,5.80
2022-12-06T08:41:39.944Z,6.43
2022-12-06T08:44:11.933Z,5.75
2022-12-06T08:46:40.085Z,5.50
2022-12-06T08:49:07.869Z,5.70
2022-12-06T08:51:36.085Z,6.32
2022-12-06T08:54:04.144Z,7.85
2022-12-06T08:56:32.007Z,7.35
2022-12-06T08:58:59.449Z,7.80
2022-12-06T09:01:35.699Z,6.12
2022-12-06T09:04:06.488Z,6.75
2022-12-06T09:06:36.363Z,6.30
2022-12-06T09:09:03.888Z,5.40
2022-12-06T09:11:31.179Z,5.35
2022-12-06T09:13:58.818Z,9.15
2022-12-06T09:16:27.780Z,7.62
2022-12-06T09:18:55.163Z,5.15
2022-12-06T09:21:26.312Z,7.30
2022-12-06T09:23:57.957Z,5.55
2022-12-06T09:26:26.189Z,5.50
2022-12-06T09:28:54.901Z,9.60
2022-12-06T09:31:23.011Z,5.78
2022-12-06T09:33:51.497Z,6.53
2022-12-06T09:36:30.039Z,5.35
2022-12-06T09:39:02.036Z,5.87
2022-12-06T09:41:50.437Z,4.70
2022-12-06T09:44:39.451Z,3.80
2022-12-06T09:47:31.360Z,2.87
2022-12-06T09:50:26.931Z,2.67
2022-12-06T09:53:15.953Z,3.53
2022-12-06T09:55:56.248Z,2.87
2022-12-06T09:58:41.783Z,2.80
2022-12-06T10:01:37.561Z,3.40
2022-12-06T10:04:38.506Z,2.72
2022-12-06T10:07:24.211Z,3.17
2022-12-06T10:10:18.997Z,1.55
2022-12-06T10:13:23.576Z,3.17
2022-12-06T10:15:53.801Z,3.25
2022-12-06T10:18:59.658Z,5.53
2022-12-06T10:24:22.889Z,4.57
2022-12-06T10:26:53.028Z,2.90
2022-12-06T10:29:40.606Z,4.30
2022-12-06T10:32:17.069Z,2.62
2022-12-06T10:34:54.844Z,2.95
2022-12-06T10:37:38.007Z,7.55
2022-12-06T10:40:16.313Z,5.28
2022-12-06T10:42:49.237Z,3.00
2022-12-06T10:45:47.937Z,2.85
2022-12-06T10:48:27.762Z,4.37
2022-12-06T10:51:01.336Z,5.18
2022-12-06T10:53:32.618Z,4.60
2022-12-06T10:56:14.665Z,5.07
2022-12-06T10:58:51.779Z,6.25
2022-12-06T11:01:22.380Z,5.85
2022-12-06T11:04:00.495Z,4.43
2022-12-06T11:06:34.643Z,6.25
2022-12-06T11:09:21.080Z,5.62
2022-12-06T11:11:49.189Z,6.50
2022-12-06T11:14:28.140Z,9.88
2022-12-06T11:17:02.404Z,7.15
2022-12-06T11:19:34.623Z,5.55
2022-12-06T11:22:20.237Z,7.65
2022-12-06T11:25:18.121Z,3.95
2022-12-06T11:27:52.276Z,3.65
2022-12-06T11:30:21.157Z,4.65
2022-12-06T11:32:50.489Z,2.72
2022-12-06T11:35:23.359Z,2.75
2022-12-06T11:37:55.542Z,3.90
2022-12-06T11:40:27.801Z,3.42
2022-12-06T11:42:57.159Z,3.28
2022-12-06T11:45:26.869Z,3.87
2022-12-06T11:47:56.455Z,3.92
2022-12-06T11:50:26.043Z,2.90
2022-12-06T11:52:59.342Z,3.20
2022-12-06T11:55:41.451Z,2.28
2022-12-06T11:58:15.788Z,2.87
2022-12-06T12:01:16.072Z,7.45
2022-12-06T12:03:45.509Z,2.30
2022-12-06T12:06:17.283Z,14.73
2022-12-06T12:09:02.556Z,3.95
2022-12-06T12:11:32.695Z,13.02
2022-12-06T12:14:25.433Z,10.68
2022-12-06T12:16:59.154Z,13.38
2022-12-06T12:19:32.912Z,3.10
2022-12-06T12:22:21.508Z,5.45
2022-12-06T12:27:41.217Z,5.15
2022-12-06T12:30:31.697Z,8.15
2022-12-06T12:33:05.091Z,9.48
2022-12-06T12:35:34.849Z,5.65
2022-12-06T12:38:11.432Z,8.68
2022-12-06T12:40:49.895Z,4.28
2022-12-06T12:43:31.479Z,4.82
2022-12-06T12:46:11.337Z,3.37
2022-12-06T12:48:40.306Z,3.53
2022-12-06T12:51:34.641Z,3.87
2022-12-06T12:54:18.882Z,2.95
2022-12-06T12:56:46.563Z,4.87
2022-12-06T12:59:17.314Z,3.40
2022-12-06T13:01:54.018Z,3.97
2022-12-06T13:05:11.145Z,4.43
2022-12-06T13:07:42.122Z,10.98
2022-12-06T13:10:24.727Z,8.93
2022-12-06T13:13:02.382Z,3.62
2022-12-06T13:15:40.902Z,3.87
2022-12-06T13:18:26.561Z,3.45
2022-12-06T13:20:57.123Z,3.40
2022-12-06T13:23:27.910Z,3.05
2022-12-06T13:26:18.087Z,4.82
2022-12-06T13:28:50.213Z,3.33
2022-12-06T13:31:20.492Z,4.55
2022-12-06T13:33:58.548Z,5.68
2022-12-06T13:36:27.112Z,5.80
2022-12-06T13:38:56.130Z,4.37
2022-12-06T13:41:54.252Z,7.15
2022-12-06T13:44:42.306Z,6.53
2022-12-06T13:47:27.889Z,5.60
2022-12-06T13:50:15.392Z,5.65
2022-12-06T13:52:42.716Z,8.18
2022-12-06T13:55:25.590Z,4.75
2022-12-06T13:57:55.926Z,4.18
2022-12-06T14:00:29.618Z,6.85
2022-12-06T14:03:21.635Z,5.00
2022-12-06T14:06:14.466Z,6.03
2022-12-06T14:08:54.804Z,3.85
2022-12-06T14:11:35.150Z,4.93
2022-12-06T14:14:15.186Z,3.35
2022-12-06T14:16:51.348Z,2.28
2022-12-06T14:19:20.947Z,2.85
2022-12-06T14:22:02.558Z,3.50
2022-12-06T14:24:39.741Z,4.32
2022-12-06T14:27:13.424Z,2.67
2022-12-06T14:29:42.211Z,3.03
2022-12-06T14:32:09.747Z,3.87
2022-12-06T14:34:37.445Z,3.70
2022-12-06T14:37:21.566Z,4.72
2022-12-06T14:39:53.269Z,3.10
2022-12-06T14:42:39.630Z,4.85
2022-12-06T14:45:13.514Z,5.85
2022-12-06T14:47:42.357Z,6.00
2022-12-06T14:50:28.687Z,5.37
2022-12-06T14:53:06.621Z,6.00
2022-12-06T14:55:36.015Z,6.03
2022-12-06T14:58:15.346Z,5.65
2022-12-06T15:01:22.504Z,7.47
2022-12-06T15:04:11.759Z,5.75
2022-12-06T15:06:52.457Z,10.77
2022-12-06T15:09:22.055Z,6.53
2022-12-06T15:12:08.076Z,8.32
2022-12-06T15:14:49.537Z,8.25
2022-12-06T15:17:19.933Z,5.45
2022-12-06T15:19:53.962Z,8.95
2022-12-06T15:22:27.690Z,8.93
2022-12-06T15:24:57.788Z,9.10
2022-12-06T15:27:27.897Z,9.48
2022-12-06T15:29:55.641Z,8.43
2022-12-06T15:32:24.196Z,9.98
2022-12-06T15:34:51.600Z,11.02
2022-12-06T15:40:59.672Z,10.65
2022-12-06T15:43:33.079Z,8.60
2022-12-06T15:46:02.602Z,9.38
2022-12-06T15:48:32.111Z,11.70
2022-12-06T15:51:00.240Z,9.73
2022-12-06T15:53:29.224Z,8.88
2022-12-06T15:55:57.225Z,7.43
2022-12-06T15:58:24.708Z,8.20
2022-12-06T16:00:52.138Z,7.90
2022-12-06T16:03:19.822Z,7.43
2022-12-06T16:05:48.068Z,8.40
2022-12-06T16:08:19.713Z,9.50
2022-12-06T16:11:11.229Z,8.50
2022-12-06T16:13:35.209Z,8.65
2022-12-06T16:16:03.018Z,9.40
2022-12-06T16:18:30.510Z,9.52
2022-12-06T16:20:58.457Z,9.10
2022-12-06T16:24:12.562Z,9.93
2022-12-06T16:26:37.021Z,11.60
2022-12-06T16:29:07.773Z,10.90
2022-12-06T16:31:38.773Z,10.25
2022-12-06T16:34:07.252Z,9.57
2022-12-06T16:36:35.261Z,6.55
2022-12-06T16:39:05.158Z,7.12
2022-12-06T16:41:34.798Z,6.95
2022-12-06T16:44:03.542Z,7.50
2022-12-06T16:46:33.160Z,8.25
2022-12-06T16:49:44.710Z,13.02
2022-12-06T16:52:03.186Z,19.37
2022-12-06T16:54:31.142Z,15.73
2022-12-06T16:56:58.850Z,11.25
2022-12-06T16:59:26.701Z,8.48
2022-12-06T17:01:56.606Z,11.27
2022-12-06T17:04:26.133Z,9.77
2022-12-06T17:06:56.265Z,7.97
2022-12-06T17:09:24.908Z,10.93
2022-12-06T17:12:07.002Z,8.73
2022-12-06T17:14:36.411Z,10.02
2022-12-06T17:17:04.602Z,9.38
2022-12-06T17:19:34.014Z,9.50
2022-12-06T17:22:02.437Z,8.88
2022-12-06T17:24:37.599Z,48.28
2022-12-06T17:27:07.097Z,10.98
2022-12-06T17:29:36.672Z,17.37
2022-12-06T17:32:05.956Z,9.82
2022-12-06T17:34:34.522Z,6.82
2022-12-06T17:37:03.418Z,9.23
2022-12-06T17:39:31.697Z,9.82
2022-12-06T17:42:18.697Z,11.35
2022-12-06T17:44:47.545Z,8.60
2022-12-06T17:47:16.150Z,8.15
2022-12-06T17:49:44.854Z,9.55
2022-12-06T17:52:13.695Z,14.27
2022-12-06T17:54:41.372Z,15.75
2022-12-06T17:57:16.579Z,12.18
2022-12-06T17:59:46.841Z,11.50
2022-12-06T18:02:18.869Z,12.43
2022-12-06T18:04:48.318Z,15.30
2022-12-06T18:07:17.243Z,13.07
2022-12-06T18:09:45.964Z,11.77
2022-12-06T18:12:17.098Z,13.50
2022-12-06T18:14:45.507Z,14.25
2022-12-06T18:17:14.272Z,13.32
2022-12-06T18:19:50.585Z,11.88
2022-12-06T18:22:19.228Z,13.85
2022-12-06T18:24:49.216Z,11.75
2022-12-06T18:27:18.966Z,10.15
2022-12-06T18:29:47.332Z,11.70
2022-12-06T18:32:15.902Z,13.70
2022-12-06T18:34:44.939Z,26.05
2022-12-06T18:37:13.995Z,16.77
2022-12-06T18:39:41.984Z,19.00
2022-12-06T18:42:10.086Z,26.02
2022-12-06T18:44:41.759Z,24.75
2022-12-06T18:47:10.290Z,20.65
2022-12-06T18:49:38.684Z,17.95
2022-12-06T18:52:08.397Z,15.85
2022-12-06T18:54:36.678Z,27.62
2022-12-06T18:57:05.649Z,28.67
2022-12-06T18:59:38.004Z,23.80
2022-12-06T19:02:06.491Z,19.90
2022-12-06T19:04:37.160Z,25.42
2022-12-06T19:07:06.815Z,25.33
2022-12-06T19:09:41.580Z,22.77
2022-12-06T19:12:10.864Z,24.73
2022-12-06T19:14:40.069Z,26.37
2022-12-06T19:17:13.880Z,30.15
2022-12-06T19:19:44.356Z,23.70
2022-12-06T19:22:13.208Z,29.40
2022-12-06T19:24:43.084Z,30.12
2022-12-06T19:27:13.237Z,26.67
2022-12-06T19:29:45.061Z,27.92
2022-12-06T19:32:19.058Z,29.55
2022-12-06T19:34:47.872Z,46.37
2022-12-06T19:37:26.834Z,44.60
2022-12-06T19:39:55.968Z,25.85
2022-12-06T19:42:44.377Z,66.97
2022-12-06T19:45:14.417Z,43.95
2022-12-06T19:47:44.572Z,26.92
2022-12-06T19:50:12.995Z,19.08
2022-12-06T19:52:42.241Z,24.63
2022-12-06T19:55:14.197Z,25.05
2022-12-06T19:57:46.641Z,25.37
2022-12-06T20:00:23.040Z,22.95
2022-12-06T20:02:52.167Z,21.67
2022-12-06T20:05:22.029Z,24.23
2022-12-06T20:07:50.023Z,20.88
2022-12-06T20:10:19.356Z,28.55
2022-12-06T20:12:48.140Z,20.85
2022-12-06T20:15:16.772Z,21.98
2022-12-06T20:17:45.992Z,20.83
2022-12-06T20:20:15.094Z,23.52
2022-12-06T20:22:43.467Z,17.75
2022-12-06T20:25:16.252Z,24.80
2022-12-06T20:27:51.458Z,42.22
2022-12-06T20:30:23.952Z,33.08
2022-12-06T20:32:53.233Z,40.92
2022-12-06T20:35:21.252Z,49.53
2022-12-06T20:37:53.046Z,66.18
2022-12-06T20:40:26.933Z,79.20
2022-12-06T20:43:01.512Z,55.95
2022-12-06T20:45:34.663Z,65.95
2022-12-06T20:48:03.046Z,68.72
2022-12-06T20:50:32.302Z,71.25
2022-12-06T20:53:00.348Z,63.45
2022-12-06T20:55:29.086Z,42.97
2022-12-06T20:57:58.008Z,33.85
2022-12-06T21:00:26.490Z,34.58
2022-12-06T21:02:55.501Z,35.15
2022-12-06T21:05:24.245Z,32.30
2022-12-06T21:07:52.369Z,35.15
2022-12-06T21:10:19.776Z,36.20
2022-12-06T21:12:47.895Z,33.50
2022-12-06T21:15:15.843Z,31.90
2022-12-06T21:17:43.559Z,53.03
2022-12-06T21:20:12.214Z,46.37
2022-12-06T21:22:40.826Z,47.55
2022-12-06T21:25:09.444Z,40.78
2022-12-06T21:27:37.603Z,54.50
2022-12-06T21:30:07.562Z,43.80
2022-12-06T21:32:35.031Z,37.85
2022-12-06T21:35:02.660Z,35.38
2022-12-06T21:37:31.104Z,39.17
2022-12-06T21:40:00.317Z,22.98
2022-12-06T21:42:29.050Z,25.62
2022-12-06T21:44:56.452Z,25.55
2022-12-06T21:47:23.819Z,23.87
2022-12-06T21:49:51.463Z,19.85
2022-12-06T21:52:18.866Z,22.70
2022-12-06T21:54:46.275Z,28.15
2022-12-06T21:57:13.944Z,32.15
2022-12-06T21:59:41.485Z,32.20
2022-12-06T22:02:13.197Z,39.33
2022-12-06T22:04:40.989Z,33.60
2022-12-06T22:07:09.566Z,33.42
2022-12-06T22:09:37.061Z,37.85
2022-12-06T22:12:05.205Z,33.65
2022-12-06T22:14:32.640Z,33.42
2022-12-06T22:17:01.065Z,35.08
2022-12-06T22:19:29.154Z,28.52
2022-12-06T22:21:56.857Z,29.50
2022-12-06T22:24:24.589Z,26.17
2022-12-06T22:26:52.272Z,25.20
2022-12-06T22:29:19.640Z,24.40
2022-12-06T22:31:48.278Z,23.70
2022-12-06T22:34:16.098Z,25.67
2022-12-06T22:36:43.486Z,28.95
2022-12-06T22:39:11.249Z,23.35
2022-12-06T22:41:39.330Z,24.50
2022-12-06T22:44:07.194Z,26.55
2022-12-06T22:46:36.703Z,24.02
2022-12-06T22:49:05.344Z,23.45
2022-12-06T22:51:36.708Z,25.55
2022-12-06T22:54:12.566Z,23.77
2022-12-06T22:56:47.140Z,25.88
2022-12-06T23:01:43.640Z,32.67
2022-12-06T23:04:11.920Z,27.33
2022-12-06T23:06:40.025Z,29.00
2022-12-06T23:09:07.944Z,27.42
2022-12-06T23:11:36.695Z,26.62
2022-12-06T23:14:04.734Z,27.20
2022-12-06T23:16:33.052Z,25.88
2022-12-06T23:19:01.961Z,24.70
2022-12-06T23:21:32.064Z,28.52
2022-12-06T23:24:02.385Z,27.10
2022-12-06T23:26:35.461Z,24.70
2022-12-06T23:29:03.833Z,27.08
2022-12-06T23:31:34.689Z,29.52
2022-12-06T23:34:05.592Z,29.52
2022-12-06T23:36:35.113Z,29.65
2022-12-06T23:39:03.455Z,24.08
2022-12-06T23:41:31.863Z,30.98
2022-12-06T23:44:00.142Z,26.92
2022-12-06T23:46:30.096Z,28.70
2022-12-06T23:48:58.164Z,27.77
2022-12-06T23:51:34.086Z,27.35
2022-12-06T23:54:03.436Z,30.42
2022-12-06T23:56:33.838Z,28.08
2022-12-06T23:59:02.051Z,24.73
